sensor_id;sensor_type;location;lat;lon;timestamp;temperature;humidity
25640;DHT22;13497;48.322;16.204;2023-07-30T00:01:20;22.90;96.60
25640;DHT22;13497;48.322;16.204;2023-07-30T00:03:46;22.90;96.60
25640;DHT22;13497;48.322;16.204;2023-07-30T00:06:11;22.80;96.60
25640;DHT22;13497;48.322;16.204;2023-07-30T00:08:37;22.80;96.70
25640;DHT22;13497;48.322;16.204;2023-07-30T00:11:03;22.80;96.80
25640;DHT22;13497;48.322;16.204;2023-07-30T00:13:28;22.80;96.80
25640;DHT22;13497;48.322;16.204;2023-07-30T00:15:54;22.80;96.90
25640;DHT22;13497;48.322;16.204;2023-07-30T00:18:20;22.90;96.90
25640;DHT22;13497;48.322;16.204;2023-07-30T00:20:45;22.90;96.90
25640;DHT22;13497;48.322;16.204;2023-07-30T00:23:11;22.90;96.90
25640;DHT22;13497;48.322;16.204;2023-07-30T00:25:36;22.90;96.90
25640;DHT22;13497;48.322;16.204;2023-07-30T00:28:02;22.80;96.90
25640;DHT22;13497;48.322;16.204;2023-07-30T00:30:28;22.80;97.00
25640;DHT22;13497;48.322;16.204;2023-07-30T00:32:54;22.80;97.00
25640;DHT22;13497;48.322;16.204;2023-07-30T00:35:19;22.80;97.00
25640;DHT22;13497;48.322;16.204;2023-07-30T00:37:45;22.80;96.90
25640;DHT22;13497;48.322;16.204;2023-07-30T00:40:11;22.80;96.90
25640;DHT22;13497;48.322;16.204;2023-07-30T00:42:37;22.80;96.90
25640;DHT22;13497;48.322;16.204;2023-07-30T00:45:03;22.70;97.00
25640;DHT22;13497;48.322;16.204;2023-07-30T00:47:30;22.70;97.00
25640;DHT22;13497;48.322;16.204;2023-07-30T00:49:55;22.60;97.00
25640;DHT22;13497;48.322;16.204;2023-07-30T00:52:23;22.60;97.30
25640;DHT22;13497;48.322;16.204;2023-07-30T00:54:49;22.60;97.10
25640;DHT22;13497;48.322;16.204;2023-07-30T00:57:18;22.60;97.00
25640;DHT22;13497;48.322;16.204;2023-07-30T00:59:46;22.60;97.00
25640;DHT22;13497;48.322;16.204;2023-07-30T01:02:13;22.60;97.00
25640;DHT22;13497;48.322;16.204;2023-07-30T01:04:39;22.50;97.00
25640;DHT22;13497;48.322;16.204;2023-07-30T01:07:06;22.50;97.00
25640;DHT22;13497;48.322;16.204;2023-07-30T01:09:32;22.50;97.10
25640;DHT22;13497;48.322;16.204;2023-07-30T01:12:00;22.50;97.10
25640;DHT22;13497;48.322;16.204;2023-07-30T01:14:26;22.40;97.10
25640;DHT22;13497;48.322;16.204;2023-07-30T01:16:52;22.40;97.20
25640;DHT22;13497;48.322;16.204;2023-07-30T01:19:18;22.40;97.50
25640;DHT22;13497;48.322;16.204;2023-07-30T01:21:44;22.40;97.20
25640;DHT22;13497;48.322;16.204;2023-07-30T01:24:10;22.40;97.30
25640;DHT22;13497;48.322;16.204;2023-07-30T01:26:46;22.40;97.30
25640;DHT22;13497;48.322;16.204;2023-07-30T01:29:43;22.40;97.40
25640;DHT22;13497;48.322;16.204;2023-07-30T01:32:11;22.40;97.40
25640;DHT22;13497;48.322;16.204;2023-07-30T01:34:39;22.40;97.30
25640;DHT22;13497;48.322;16.204;2023-07-30T01:37:08;22.40;97.30
25640;DHT22;13497;48.322;16.204;2023-07-30T01:39:36;22.40;97.30
25640;DHT22;13497;48.322;16.204;2023-07-30T01:42:04;22.40;97.40
25640;DHT22;13497;48.322;16.204;2023-07-30T01:44:29;22.30;97.40
25640;DHT22;13497;48.322;16.204;2023-07-30T01:46:55;22.30;97.40
25640;DHT22;13497;48.322;16.204;2023-07-30T01:49:21;22.30;97.40
25640;DHT22;13497;48.322;16.204;2023-07-30T01:51:46;22.30;97.40
25640;DHT22;13497;48.322;16.204;2023-07-30T01:54:12;22.40;97.40
25640;DHT22;13497;48.322;16.204;2023-07-30T01:56:38;22.30;97.40
25640;DHT22;13497;48.322;16.204;2023-07-30T01:59:04;22.30;97.50
25640;DHT22;13497;48.322;16.204;2023-07-30T02:01:30;22.30;97.50
25640;DHT22;13497;48.322;16.204;2023-07-30T02:03:55;22.30;97.50
25640;DHT22;13497;48.322;16.204;2023-07-30T02:06:21;22.30;97.50
25640;DHT22;13497;48.322;16.204;2023-07-30T02:08:47;22.30;97.40
25640;DHT22;13497;48.322;16.204;2023-07-30T02:11:13;22.30;97.40
25640;DHT22;13497;48.322;16.204;2023-07-30T02:13:38;22.40;97.40
25640;DHT22;13497;48.322;16.204;2023-07-30T02:16:04;22.40;97.40
25640;DHT22;13497;48.322;16.204;2023-07-30T02:18:29;22.40;97.40
25640;DHT22;13497;48.322;16.204;2023-07-30T02:20:55;22.30;97.40
25640;DHT22;13497;48.322;16.204;2023-07-30T02:23:21;22.30;97.50
25640;DHT22;13497;48.322;16.204;2023-07-30T02:25:46;22.30;97.40
25640;DHT22;13497;48.322;16.204;2023-07-30T02:28:12;22.30;97.40
25640;DHT22;13497;48.322;16.204;2023-07-30T02:30:38;22.30;97.40
25640;DHT22;13497;48.322;16.204;2023-07-30T02:33:03;22.30;97.50
25640;DHT22;13497;48.322;16.204;2023-07-30T02:35:29;22.20;97.60
25640;DHT22;13497;48.322;16.204;2023-07-30T02:37:54;22.20;97.60
25640;DHT22;13497;48.322;16.204;2023-07-30T02:40:20;22.30;97.60
25640;DHT22;13497;48.322;16.204;2023-07-30T02:42:46;22.20;97.60
25640;DHT22;13497;48.322;16.204;2023-07-30T02:45:11;22.20;97.70
25640;DHT22;13497;48.322;16.204;2023-07-30T02:47:37;22.10;97.80
25640;DHT22;13497;48.322;16.204;2023-07-30T02:50:04;22.10;97.80
25640;DHT22;13497;48.322;16.204;2023-07-30T02:52:30;22.10;97.90
25640;DHT22;13497;48.322;16.204;2023-07-30T02:54:55;22.10;97.90
25640;DHT22;13497;48.322;16.204;2023-07-30T02:57:21;22.10;97.90
25640;DHT22;13497;48.322;16.204;2023-07-30T02:59:47;22.10;97.90
25640;DHT22;13497;48.322;16.204;2023-07-30T03:02:12;22.10;97.90
25640;DHT22;13497;48.322;16.204;2023-07-30T03:04:38;22.10;97.80
25640;DHT22;13497;48.322;16.204;2023-07-30T03:07:04;22.10;97.80
25640;DHT22;13497;48.322;16.204;2023-07-30T03:09:30;22.00;97.90
25640;DHT22;13497;48.322;16.204;2023-07-30T03:11:55;22.00;97.80
25640;DHT22;13497;48.322;16.204;2023-07-30T03:14:21;22.00;97.80
25640;DHT22;13497;48.322;16.204;2023-07-30T03:16:48;22.00;97.80
25640;DHT22;13497;48.322;16.204;2023-07-30T03:19:14;22.00;97.80
25640;DHT22;13497;48.322;16.204;2023-07-30T03:21:39;22.00;97.80
25640;DHT22;13497;48.322;16.204;2023-07-30T03:24:05;22.00;97.80
25640;DHT22;13497;48.322;16.204;2023-07-30T03:26:31;22.10;97.80
25640;DHT22;13497;48.322;16.204;2023-07-30T03:28:56;22.10;97.90
25640;DHT22;13497;48.322;16.204;2023-07-30T03:31:22;22.10;97.90
25640;DHT22;13497;48.322;16.204;2023-07-30T03:33:47;22.10;97.90
25640;DHT22;13497;48.322;16.204;2023-07-30T03:36:13;22.00;98.00
25640;DHT22;13497;48.322;16.204;2023-07-30T03:38:40;22.00;98.10
25640;DHT22;13497;48.322;16.204;2023-07-30T03:41:06;22.00;98.00
25640;DHT22;13497;48.322;16.204;2023-07-30T03:43:32;22.00;98.10
25640;DHT22;13497;48.322;16.204;2023-07-30T03:45:58;21.90;98.10
25640;DHT22;13497;48.322;16.204;2023-07-30T03:48:23;22.00;98.10
25640;DHT22;13497;48.322;16.204;2023-07-30T03:50:49;22.00;98.10
25640;DHT22;13497;48.322;16.204;2023-07-30T03:53:15;22.00;98.10
25640;DHT22;13497;48.322;16.204;2023-07-30T03:55:41;22.00;98.00
25640;DHT22;13497;48.322;16.204;2023-07-30T03:58:06;22.10;98.10
25640;DHT22;13497;48.322;16.204;2023-07-30T04:00:32;22.10;98.10
25640;DHT22;13497;48.322;16.204;2023-07-30T04:02:58;22.00;98.00
25640;DHT22;13497;48.322;16.204;2023-07-30T04:05:24;22.10;98.00
25640;DHT22;13497;48.322;16.204;2023-07-30T04:07:49;22.20;97.90
25640;DHT22;13497;48.322;16.204;2023-07-30T04:10:16;22.20;98.00
25640;DHT22;13497;48.322;16.204;2023-07-30T04:12:41;22.20;98.20
25640;DHT22;13497;48.322;16.204;2023-07-30T04:15:07;22.20;97.90
25640;DHT22;13497;48.322;16.204;2023-07-30T04:17:35;22.20;97.90
25640;DHT22;13497;48.322;16.204;2023-07-30T04:20:01;22.20;97.90
25640;DHT22;13497;48.322;16.204;2023-07-30T04:22:27;22.20;97.90
25640;DHT22;13497;48.322;16.204;2023-07-30T04:24:53;22.20;97.80
25640;DHT22;13497;48.322;16.204;2023-07-30T04:27:18;22.30;97.80
25640;DHT22;13497;48.322;16.204;2023-07-30T04:29:44;22.40;97.70
25640;DHT22;13497;48.322;16.204;2023-07-30T04:32:11;22.40;97.70
25640;DHT22;13497;48.322;16.204;2023-07-30T04:34:37;22.50;97.70
25640;DHT22;13497;48.322;16.204;2023-07-30T04:37:03;22.50;97.60
25640;DHT22;13497;48.322;16.204;2023-07-30T04:39:30;22.50;97.60
25640;DHT22;13497;48.322;16.204;2023-07-30T04:41:55;22.50;97.60
25640;DHT22;13497;48.322;16.204;2023-07-30T04:44:21;22.50;97.70
25640;DHT22;13497;48.322;16.204;2023-07-30T04:46:46;22.50;97.60
25640;DHT22;13497;48.322;16.204;2023-07-30T04:49:12;22.60;97.60
25640;DHT22;13497;48.322;16.204;2023-07-30T04:51:38;22.70;97.50
25640;DHT22;13497;48.322;16.204;2023-07-30T04:54:03;22.60;97.60
25640;DHT22;13497;48.322;16.204;2023-07-30T04:56:29;22.60;97.70
25640;DHT22;13497;48.322;16.204;2023-07-30T04:58:55;22.50;97.80
25640;DHT22;13497;48.322;16.204;2023-07-30T05:01:20;22.60;97.80
25640;DHT22;13497;48.322;16.204;2023-07-30T05:03:46;22.60;97.80
25640;DHT22;13497;48.322;16.204;2023-07-30T05:06:12;22.70;97.70
25640;DHT22;13497;48.322;16.204;2023-07-30T05:08:37;22.70;97.60
25640;DHT22;13497;48.322;16.204;2023-07-30T05:11:03;22.90;97.40
25640;DHT22;13497;48.322;16.204;2023-07-30T05:13:29;22.90;97.40
25640;DHT22;13497;48.322;16.204;2023-07-30T05:15:54;22.90;97.40
25640;DHT22;13497;48.322;16.204;2023-07-30T05:18:20;22.90;97.30
25640;DHT22;13497;48.322;16.204;2023-07-30T05:20:46;23.00;97.30
25640;DHT22;13497;48.322;16.204;2023-07-30T05:23:12;23.00;97.30
25640;DHT22;13497;48.322;16.204;2023-07-30T05:25:38;23.00;97.20
25640;DHT22;13497;48.322;16.204;2023-07-30T05:28:03;23.00;97.20
25640;DHT22;13497;48.322;16.204;2023-07-30T05:30:29;23.00;97.30
25640;DHT22;13497;48.322;16.204;2023-07-30T05:32:55;23.10;97.20
25640;DHT22;13497;48.322;16.204;2023-07-30T05:35:20;23.00;97.30
25640;DHT22;13497;48.322;16.204;2023-07-30T05:37:47;23.00;97.30
25640;DHT22;13497;48.322;16.204;2023-07-30T05:40:12;23.10;97.20
25640;DHT22;13497;48.322;16.204;2023-07-30T05:42:38;23.00;97.20
25640;DHT22;13497;48.322;16.204;2023-07-30T05:45:04;23.00;97.30
25640;DHT22;13497;48.322;16.204;2023-07-30T05:47:30;23.00;97.30
25640;DHT22;13497;48.322;16.204;2023-07-30T05:49:55;23.00;97.40
25640;DHT22;13497;48.322;16.204;2023-07-30T05:52:21;23.00;97.40
25640;DHT22;13497;48.322;16.204;2023-07-30T05:54:46;23.00;97.60
25640;DHT22;13497;48.322;16.204;2023-07-30T05:57:12;23.00;97.50
25640;DHT22;13497;48.322;16.204;2023-07-30T05:59:37;23.00;97.40
25640;DHT22;13497;48.322;16.204;2023-07-30T06:02:03;22.90;97.60
25640;DHT22;13497;48.322;16.204;2023-07-30T06:04:30;22.80;97.50
25640;DHT22;13497;48.322;16.204;2023-07-30T06:06:57;22.80;97.60
25640;DHT22;13497;48.322;16.204;2023-07-30T06:09:23;22.70;98.00
25640;DHT22;13497;48.322;16.204;2023-07-30T06:11:49;22.50;98.70
25640;DHT22;13497;48.322;16.204;2023-07-30T06:14:14;22.40;99.00
25640;DHT22;13497;48.322;16.204;2023-07-30T06:16:40;22.20;99.90
25640;DHT22;13497;48.322;16.204;2023-07-30T06:19:06;22.10;99.90
25640;DHT22;13497;48.322;16.204;2023-07-30T06:21:31;21.90;99.90
25640;DHT22;13497;48.322;16.204;2023-07-30T06:23:57;21.80;99.90
25640;DHT22;13497;48.322;16.204;2023-07-30T06:26:22;21.70;99.90
25640;DHT22;13497;48.322;16.204;2023-07-30T06:28:48;21.70;99.90
25640;DHT22;13497;48.322;16.204;2023-07-30T06:31:14;21.70;99.90
25640;DHT22;13497;48.322;16.204;2023-07-30T06:33:39;21.60;99.90
25640;DHT22;13497;48.322;16.204;2023-07-30T06:36:05;21.50;99.90
25640;DHT22;13497;48.322;16.204;2023-07-30T06:38:30;21.60;99.90
25640;DHT22;13497;48.322;16.204;2023-07-30T06:40:56;21.60;99.90
25640;DHT22;13497;48.322;16.204;2023-07-30T06:43:23;21.70;99.90
25640;DHT22;13497;48.322;16.204;2023-07-30T06:45:49;21.60;99.90
25640;DHT22;13497;48.322;16.204;2023-07-30T06:48:15;21.50;99.90
25640;DHT22;13497;48.322;16.204;2023-07-30T06:50:43;21.30;99.90
25640;DHT22;13497;48.322;16.204;2023-07-30T06:53:09;21.20;99.90
25640;DHT22;13497;48.322;16.204;2023-07-30T06:55:34;21.10;99.90
25640;DHT22;13497;48.322;16.204;2023-07-30T06:58:00;21.10;99.90
25640;DHT22;13497;48.322;16.204;2023-07-30T07:00:25;21.00;99.90
25640;DHT22;13497;48.322;16.204;2023-07-30T07:02:51;21.00;99.90
25640;DHT22;13497;48.322;16.204;2023-07-30T07:05:17;21.00;99.90
25640;DHT22;13497;48.322;16.204;2023-07-30T07:07:42;20.90;99.90
25640;DHT22;13497;48.322;16.204;2023-07-30T07:10:08;20.80;99.90
25640;DHT22;13497;48.322;16.204;2023-07-30T07:12:36;20.80;99.90
25640;DHT22;13497;48.322;16.204;2023-07-30T07:15:04;20.70;99.90
25640;DHT22;13497;48.322;16.204;2023-07-30T07:17:30;20.70;99.90
25640;DHT22;13497;48.322;16.204;2023-07-30T07:19:56;20.60;99.90
25640;DHT22;13497;48.322;16.204;2023-07-30T07:22:22;20.70;99.90
25640;DHT22;13497;48.322;16.204;2023-07-30T07:24:47;20.70;99.90
25640;DHT22;13497;48.322;16.204;2023-07-30T07:27:13;20.80;99.90
25640;DHT22;13497;48.322;16.204;2023-07-30T07:29:39;20.80;99.90
25640;DHT22;13497;48.322;16.204;2023-07-30T07:32:05;20.80;99.90
25640;DHT22;13497;48.322;16.204;2023-07-30T07:34:31;20.90;99.90
25640;DHT22;13497;48.322;16.204;2023-07-30T07:36:57;20.90;99.90
25640;DHT22;13497;48.322;16.204;2023-07-30T07:39:22;21.00;99.90
25640;DHT22;13497;48.322;16.204;2023-07-30T07:41:48;21.00;99.90
25640;DHT22;13497;48.322;16.204;2023-07-30T07:44:13;21.00;99.90
25640;DHT22;13497;48.322;16.204;2023-07-30T07:46:39;21.10;99.90
25640;DHT22;13497;48.322;16.204;2023-07-30T07:49:05;21.10;99.90
25640;DHT22;13497;48.322;16.204;2023-07-30T07:51:30;21.00;99.90
25640;DHT22;13497;48.322;16.204;2023-07-30T07:53:56;21.10;99.90
25640;DHT22;13497;48.322;16.204;2023-07-30T07:56:22;21.00;99.90
25640;DHT22;13497;48.322;16.204;2023-07-30T07:58:47;21.00;99.90
25640;DHT22;13497;48.322;16.204;2023-07-30T08:01:13;21.00;99.90
25640;DHT22;13497;48.322;16.204;2023-07-30T08:03:39;20.90;99.90
25640;DHT22;13497;48.322;16.204;2023-07-30T08:06:05;20.80;99.90
25640;DHT22;13497;48.322;16.204;2023-07-30T08:08:31;20.80;99.90
25640;DHT22;13497;48.322;16.204;2023-07-30T08:10:57;20.80;99.90
25640;DHT22;13497;48.322;16.204;2023-07-30T08:13:22;20.90;99.90
25640;DHT22;13497;48.322;16.204;2023-07-30T08:15:48;20.90;99.90
25640;DHT22;13497;48.322;16.204;2023-07-30T08:18:14;21.10;99.90
25640;DHT22;13497;48.322;16.204;2023-07-30T08:20:39;21.20;99.90
25640;DHT22;13497;48.322;16.204;2023-07-30T08:23:05;21.30;99.90
25640;DHT22;13497;48.322;16.204;2023-07-30T08:25:30;21.30;99.90
25640;DHT22;13497;48.322;16.204;2023-07-30T08:27:56;21.50;99.90
25640;DHT22;13497;48.322;16.204;2023-07-30T08:30:22;22.00;99.90
25640;DHT22;13497;48.322;16.204;2023-07-30T08:32:47;22.40;99.90
25640;DHT22;13497;48.322;16.204;2023-07-30T08:35:13;22.70;99.90
25640;DHT22;13497;48.322;16.204;2023-07-30T08:37:39;22.90;99.90
25640;DHT22;13497;48.322;16.204;2023-07-30T08:40:05;23.10;99.90
25640;DHT22;13497;48.322;16.204;2023-07-30T08:42:31;23.20;99.90
25640;DHT22;13497;48.322;16.204;2023-07-30T08:44:57;23.30;99.90
25640;DHT22;13497;48.322;16.204;2023-07-30T08:47:23;23.50;99.90
25640;DHT22;13497;48.322;16.204;2023-07-30T08:49:48;23.50;99.90
25640;DHT22;13497;48.322;16.204;2023-07-30T08:52:16;23.60;99.90
25640;DHT22;13497;48.322;16.204;2023-07-30T08:54:43;23.60;99.90
25640;DHT22;13497;48.322;16.204;2023-07-30T08:57:10;23.80;99.90
25640;DHT22;13497;48.322;16.204;2023-07-30T08:59:43;23.80;99.90
25640;DHT22;13497;48.322;16.204;2023-07-30T09:02:21;23.60;99.90
25640;DHT22;13497;48.322;16.204;2023-07-30T09:04:53;23.60;99.90
25640;DHT22;13497;48.322;16.204;2023-07-30T09:07:24;23.70;99.90
25640;DHT22;13497;48.322;16.204;2023-07-30T09:09:50;24.20;99.90
25640;DHT22;13497;48.322;16.204;2023-07-30T09:12:16;24.70;99.90
25640;DHT22;13497;48.322;16.204;2023-07-30T09:14:42;25.20;99.90
25640;DHT22;13497;48.322;16.204;2023-07-30T09:17:16;25.30;99.90
25640;DHT22;13497;48.322;16.204;2023-07-30T09:19:42;24.70;99.90
25640;DHT22;13497;48.322;16.204;2023-07-30T09:22:09;24.70;99.90
25640;DHT22;13497;48.322;16.204;2023-07-30T09:24:35;25.00;99.90
25640;DHT22;13497;48.322;16.204;2023-07-30T09:27:02;25.30;99.90
25640;DHT22;13497;48.322;16.204;2023-07-30T09:29:28;25.40;99.90
25640;DHT22;13497;48.322;16.204;2023-07-30T09:31:55;25.30;99.90
25640;DHT22;13497;48.322;16.204;2023-07-30T09:34:22;25.30;99.90
25640;DHT22;13497;48.322;16.204;2023-07-30T09:36:51;25.30;99.90
25640;DHT22;13497;48.322;16.204;2023-07-30T09:39:23;25.30;99.90
25640;DHT22;13497;48.322;16.204;2023-07-30T09:41:53;25.30;99.90
25640;DHT22;13497;48.322;16.204;2023-07-30T09:44:19;25.40;99.90
25640;DHT22;13497;48.322;16.204;2023-07-30T09:46:47;25.40;99.90
25640;DHT22;13497;48.322;16.204;2023-07-30T09:49:14;25.50;99.90
25640;DHT22;13497;48.322;16.204;2023-07-30T09:51:40;25.60;99.90
25640;DHT22;13497;48.322;16.204;2023-07-30T09:54:07;25.90;99.50
25640;DHT22;13497;48.322;16.204;2023-07-30T09:56:37;26.00;99.60
25640;DHT22;13497;48.322;16.204;2023-07-30T09:59:04;26.00;99.50
25640;DHT22;13497;48.322;16.204;2023-07-30T10:01:31;26.00;98.70
25640;DHT22;13497;48.322;16.204;2023-07-30T10:03:58;25.90;98.70
25640;DHT22;13497;48.322;16.204;2023-07-30T10:06:25;25.50;99.10
25640;DHT22;13497;48.322;16.204;2023-07-30T10:08:53;25.30;99.60
25640;DHT22;13497;48.322;16.204;2023-07-30T10:11:22;25.00;99.90
25640;DHT22;13497;48.322;16.204;2023-07-30T10:13:49;24.30;99.90
25640;DHT22;13497;48.322;16.204;2023-07-30T10:16:15;23.40;99.90
25640;DHT22;13497;48.322;16.204;2023-07-30T10:18:42;22.40;99.90
25640;DHT22;13497;48.322;16.204;2023-07-30T10:21:09;21.90;99.90
25640;DHT22;13497;48.322;16.204;2023-07-30T10:23:45;21.60;99.90
25640;DHT22;13497;48.322;16.204;2023-07-30T10:26:11;21.60;99.90
25640;DHT22;13497;48.322;16.204;2023-07-30T10:28:37;21.50;99.90
25640;DHT22;13497;48.322;16.204;2023-07-30T10:31:08;21.60;99.90
25640;DHT22;13497;48.322;16.204;2023-07-30T10:33:53;21.80;99.90
25640;DHT22;13497;48.322;16.204;2023-07-30T10:36:31;22.20;99.90
25640;DHT22;13497;48.322;16.204;2023-07-30T10:38:57;22.60;99.90
25640;DHT22;13497;48.322;16.204;2023-07-30T10:41:23;23.00;99.90
25640;DHT22;13497;48.322;16.204;2023-07-30T10:43:49;23.40;99.90
25640;DHT22;13497;48.322;16.204;2023-07-30T10:46:17;23.50;99.90
25640;DHT22;13497;48.322;16.204;2023-07-30T10:48:45;23.60;99.90
25640;DHT22;13497;48.322;16.204;2023-07-30T10:51:19;23.70;99.90
25640;DHT22;13497;48.322;16.204;2023-07-30T10:53:47;23.60;99.90
25640;DHT22;13497;48.322;16.204;2023-07-30T10:56:15;23.60;99.90
25640;DHT22;13497;48.322;16.204;2023-07-30T10:58:42;23.70;99.90
25640;DHT22;13497;48.322;16.204;2023-07-30T11:01:09;24.00;99.90
25640;DHT22;13497;48.322;16.204;2023-07-30T11:03:35;24.20;99.90
25640;DHT22;13497;48.322;16.204;2023-07-30T11:06:02;24.40;99.90
25640;DHT22;13497;48.322;16.204;2023-07-30T11:08:38;24.70;99.90
25640;DHT22;13497;48.322;16.204;2023-07-30T11:11:05;25.00;99.90
25640;DHT22;13497;48.322;16.204;2023-07-30T11:13:40;25.50;99.90
25640;DHT22;13497;48.322;16.204;2023-07-30T11:16:07;25.60;99.90
25640;DHT22;13497;48.322;16.204;2023-07-30T11:18:34;25.50;99.90
25640;DHT22;13497;48.322;16.204;2023-07-30T11:23:34;25.60;99.90
25640;DHT22;13497;48.322;16.204;2023-07-30T11:26:01;25.90;99.90
25640;DHT22;13497;48.322;16.204;2023-07-30T11:31:23;26.30;99.90
25640;DHT22;13497;48.322;16.204;2023-07-30T11:33:52;26.40;99.90
25640;DHT22;13497;48.322;16.204;2023-07-30T11:36:21;26.00;99.90
25640;DHT22;13497;48.322;16.204;2023-07-30T11:38:48;25.70;99.90
25640;DHT22;13497;48.322;16.204;2023-07-30T11:41:14;25.50;99.90
25640;DHT22;13497;48.322;16.204;2023-07-30T11:43:41;25.50;99.90
25640;DHT22;13497;48.322;16.204;2023-07-30T11:46:07;25.50;99.90
25640;DHT22;13497;48.322;16.204;2023-07-30T11:48:33;25.80;99.90
25640;DHT22;13497;48.322;16.204;2023-07-30T11:51:00;26.10;99.90
25640;DHT22;13497;48.322;16.204;2023-07-30T11:53:53;26.10;99.90
25640;DHT22;13497;48.322;16.204;2023-07-30T11:56:21;26.00;99.90
25640;DHT22;13497;48.322;16.204;2023-07-30T11:58:48;26.00;99.90
25640;DHT22;13497;48.322;16.204;2023-07-30T12:01:18;26.00;99.90
25640;DHT22;13497;48.322;16.204;2023-07-30T12:03:44;25.80;99.90
25640;DHT22;13497;48.322;16.204;2023-07-30T12:06:10;25.80;99.90
25640;DHT22;13497;48.322;16.204;2023-07-30T12:08:36;25.70;99.90
25640;DHT22;13497;48.322;16.204;2023-07-30T12:11:03;25.80;99.90
25640;DHT22;13497;48.322;16.204;2023-07-30T12:13:30;25.80;99.90
25640;DHT22;13497;48.322;16.204;2023-07-30T12:15:56;25.70;99.90
25640;DHT22;13497;48.322;16.204;2023-07-30T12:18:23;25.80;99.90
25640;DHT22;13497;48.322;16.204;2023-07-30T12:20:49;25.90;99.30
25640;DHT22;13497;48.322;16.204;2023-07-30T12:23:19;26.10;98.70
25640;DHT22;13497;48.322;16.204;2023-07-30T12:25:45;26.30;98.20
25640;DHT22;13497;48.322;16.204;2023-07-30T12:28:10;26.40;97.50
25640;DHT22;13497;48.322;16.204;2023-07-30T12:30:36;26.40;98.10
25640;DHT22;13497;48.322;16.204;2023-07-30T12:33:05;26.50;97.40
25640;DHT22;13497;48.322;16.204;2023-07-30T12:35:31;26.70;96.90
25640;DHT22;13497;48.322;16.204;2023-07-30T12:37:58;26.70;95.90
25640;DHT22;13497;48.322;16.204;2023-07-30T12:40:24;26.80;95.80
25640;DHT22;13497;48.322;16.204;2023-07-30T12:42:50;26.90;94.80
25640;DHT22;13497;48.322;16.204;2023-07-30T12:45:15;27.10;94.80
25640;DHT22;13497;48.322;16.204;2023-07-30T12:47:41;27.20;94.10
25640;DHT22;13497;48.322;16.204;2023-07-30T12:50:08;27.30;94.20
25640;DHT22;13497;48.322;16.204;2023-07-30T12:52:34;27.20;94.60
25640;DHT22;13497;48.322;16.204;2023-07-30T12:55:00;27.20;93.80
25640;DHT22;13497;48.322;16.204;2023-07-30T12:57:26;27.10;94.40
25640;DHT22;13497;48.322;16.204;2023-07-30T12:59:51;27.00;94.30
25640;DHT22;13497;48.322;16.204;2023-07-30T13:02:17;27.10;94.80
25640;DHT22;13497;48.322;16.204;2023-07-30T13:04:42;27.20;94.30
25640;DHT22;13497;48.322;16.204;2023-07-30T13:07:08;27.30;94.40
25640;DHT22;13497;48.322;16.204;2023-07-30T13:09:33;27.20;93.80
25640;DHT22;13497;48.322;16.204;2023-07-30T13:11:59;27.30;93.50
25640;DHT22;13497;48.322;16.204;2023-07-30T13:14:25;27.30;93.30
25640;DHT22;13497;48.322;16.204;2023-07-30T13:16:50;27.40;92.50
25640;DHT22;13497;48.322;16.204;2023-07-30T13:19:16;27.60;92.90
25640;DHT22;13497;48.322;16.204;2023-07-30T13:21:42;27.60;92.80
25640;DHT22;13497;48.322;16.204;2023-07-30T13:24:07;27.70;93.10
25640;DHT22;13497;48.322;16.204;2023-07-30T13:26:34;27.80;92.30
25640;DHT22;13497;48.322;16.204;2023-07-30T13:29:00;27.60;91.80
25640;DHT22;13497;48.322;16.204;2023-07-30T13:31:25;27.70;92.40
25640;DHT22;13497;48.322;16.204;2023-07-30T13:33:51;27.80;92.00
25640;DHT22;13497;48.322;16.204;2023-07-30T13:36:17;28.00;91.60
25640;DHT22;13497;48.322;16.204;2023-07-30T13:38:43;28.20;91.30
25640;DHT22;13497;48.322;16.204;2023-07-30T13:41:09;28.40;91.60
25640;DHT22;13497;48.322;16.204;2023-07-30T13:43:35;28.80;91.30
25640;DHT22;13497;48.322;16.204;2023-07-30T13:46:01;29.20;90.80
25640;DHT22;13497;48.322;16.204;2023-07-30T13:48:27;29.00;90.00
25640;DHT22;13497;48.322;16.204;2023-07-30T13:50:53;29.10;89.60
25640;DHT22;13497;48.322;16.204;2023-07-30T13:53:18;29.10;87.50
25640;DHT22;13497;48.322;16.204;2023-07-30T13:55:45;29.40;88.90
25640;DHT22;13497;48.322;16.204;2023-07-30T13:58:10;29.30;87.50
25640;DHT22;13497;48.322;16.204;2023-07-30T14:00:36;29.20;88.50
25640;DHT22;13497;48.322;16.204;2023-07-30T14:03:02;29.10;87.00
25640;DHT22;13497;48.322;16.204;2023-07-30T14:05:27;29.00;88.10
25640;DHT22;13497;48.322;16.204;2023-07-30T14:07:54;28.70;88.50
25640;DHT22;13497;48.322;16.204;2023-07-30T14:10:22;28.30;88.40
25640;DHT22;13497;48.322;16.204;2023-07-30T14:12:48;28.00;89.80
25640;DHT22;13497;48.322;16.204;2023-07-30T14:15:14;27.60;90.40
25640;DHT22;13497;48.322;16.204;2023-07-30T14:17:40;27.50;90.90
25640;DHT22;13497;48.322;16.204;2023-07-30T14:20:06;27.30;91.50
25640;DHT22;13497;48.322;16.204;2023-07-30T14:22:32;27.10;91.40
25640;DHT22;13497;48.322;16.204;2023-07-30T14:24:58;26.90;91.20
25640;DHT22;13497;48.322;16.204;2023-07-30T14:27:24;26.80;91.60
25640;DHT22;13497;48.322;16.204;2023-07-30T14:29:50;26.70;91.80
25640;DHT22;13497;48.322;16.204;2023-07-30T14:32:16;26.60;91.50
25640;DHT22;13497;48.322;16.204;2023-07-30T14:34:42;26.50;92.10
25640;DHT22;13497;48.322;16.204;2023-07-30T14:37:08;26.40;94.00
25640;DHT22;13497;48.322;16.204;2023-07-30T14:39:33;25.90;96.80
25640;DHT22;13497;48.322;16.204;2023-07-30T14:41:59;24.70;99.90
25640;DHT22;13497;48.322;16.204;2023-07-30T14:44:25;23.40;99.90
25640;DHT22;13497;48.322;16.204;2023-07-30T14:46:50;22.80;99.90
25640;DHT22;13497;48.322;16.204;2023-07-30T14:49:16;22.90;99.90
25640;DHT22;13497;48.322;16.204;2023-07-30T14:51:42;23.10;99.90
25640;DHT22;13497;48.322;16.204;2023-07-30T14:54:08;23.40;99.90
25640;DHT22;13497;48.322;16.204;2023-07-30T14:56:35;23.70;99.90
25640;DHT22;13497;48.322;16.204;2023-07-30T14:59:01;24.00;99.90
25640;DHT22;13497;48.322;16.204;2023-07-30T15:01:30;24.10;99.90
25640;DHT22;13497;48.322;16.204;2023-07-30T15:03:56;24.20;99.90
25640;DHT22;13497;48.322;16.204;2023-07-30T15:06:21;24.30;99.90
25640;DHT22;13497;48.322;16.204;2023-07-30T15:08:47;23.90;99.90
25640;DHT22;13497;48.322;16.204;2023-07-30T15:11:13;23.60;99.90
25640;DHT22;13497;48.322;16.204;2023-07-30T15:13:40;23.40;99.90
25640;DHT22;13497;48.322;16.204;2023-07-30T15:16:06;23.30;99.90